createdAt,value
2022-12-03T00:00:38.212Z,30.90
2022-12-03T00:05:48.293Z,28.15
2022-12-03T00:10:50.923Z,30.10
2022-12-03T00:15:53.171Z,29.70
2022-12-03T00:20:55.509Z,29.08
2022-12-03T00:25:57.666Z,29.90
2022-12-03T00:31:00.206Z,31.05
2022-12-03T00:36:02.237Z,34.65
2022-12-03T00:41:04.379Z,27.92
2022-12-03T00:46:06.544Z,32.65
2022-12-03T00:51:08.616Z,32.30
2022-12-03T00:56:10.878Z,35.13
2022-12-03T01:01:12.855Z,34.03
2022-12-03T01:06:14.868Z,33.97
2022-12-03T01:11:35.344Z,33.08
2022-12-03T01:16:37.775Z,31.17
2022-12-03T01:21:39.977Z,37.50
2022-12-03T01:26:42.009Z,37.13
2022-12-03T01:32:02.857Z,32.47
2022-12-03T01:37:04.919Z,38.15
2022-12-03T01:42:09.487Z,33.42
2022-12-03T01:47:17.714Z,35.00
2022-12-03T01:52:26.965Z,36.05
2022-12-03T01:57:41.446Z,37.58
2022-12-03T02:02:44.263Z,36.72
2022-12-03T02:07:46.497Z,37.97
2022-12-03T02:13:18.102Z,35.33
2022-12-03T02:23:40.971Z,36.55
2022-12-03T02:28:43.244Z,33.40
2022-12-03T02:33:45.344Z,38.92
2022-12-03T02:38:49.304Z,37.08
2022-12-03T02:43:51.593Z,37.90
2022-12-03T02:48:53.828Z,37.50
2022-12-03T02:53:57.238Z,39.00
2022-12-03T02:59:02.966Z,37.88
2022-12-03T03:04:05.965Z,34.30
2022-12-03T03:09:08.146Z,41.08
2022-12-03T03:14:10.218Z,34.53
2022-12-03T03:19:12.255Z,39.95
2022-12-03T03:24:14.280Z,41.65
2022-12-03T03:29:17.285Z,32.67
2022-12-03T03:34:19.486Z,37.75
2022-12-03T03:39:21.655Z,38.85
2022-12-03T03:44:23.793Z,39.08
2022-12-03T03:49:26.193Z,38.28
2022-12-03T03:54:28.500Z,38.92
2022-12-03T03:59:30.662Z,37.97
2022-12-03T04:04:36.589Z,39.15
2022-12-03T04:09:38.683Z,41.85
2022-12-03T04:14:40.717Z,39.22
2022-12-03T04:19:42.869Z,39.47
2022-12-03T04:24:45.075Z,38.47
2022-12-03T04:29:47.187Z,39.97
2022-12-03T04:35:08.118Z,42.80
2022-12-03T04:40:30.314Z,41.40
2022-12-03T04:45:32.389Z,47.17
2022-12-03T04:50:34.482Z,39.75
2022-12-03T04:55:36.510Z,36.08
2022-12-03T05:00:38.663Z,42.33
2022-12-03T05:05:40.672Z,40.80
2022-12-03T05:10:42.649Z,39.88
2022-12-03T05:15:44.647Z,40.08
2022-12-03T05:20:53.001Z,44.38
2022-12-03T05:25:55.626Z,43.85
2022-12-03T05:30:57.705Z,43.50
2022-12-03T05:35:59.763Z,42.33
2022-12-03T05:41:01.868Z,42.53
2022-12-03T05:46:03.939Z,39.50
2022-12-03T05:51:06.042Z,44.60
2022-12-03T05:56:08.085Z,42.38
2022-12-03T06:01:10.070Z,43.28
2022-12-03T06:06:12.102Z,45.67
2022-12-03T06:11:14.131Z,41.30
2022-12-03T06:16:16.230Z,43.38
2022-12-03T06:21:18.312Z,40.08
2022-12-03T06:26:20.317Z,40.17
2022-12-03T06:31:23.003Z,45.88
2022-12-03T06:36:27.574Z,44.88
2022-12-03T06:41:29.560Z,40.55
2022-12-03T06:46:31.671Z,39.50
2022-12-03T06:51:33.800Z,41.08
2022-12-03T06:56:41.718Z,42.55
2022-12-03T07:01:47.072Z,41.60
2022-12-03T07:06:49.086Z,38.15
2022-12-03T07:11:51.131Z,43.17
2022-12-03T07:16:53.230Z,39.60
2022-12-03T07:21:55.241Z,42.20
2022-12-03T07:26:57.311Z,39.10
2022-12-03T07:31:59.440Z,44.85
2022-12-03T07:37:03.070Z,44.15
2022-12-03T07:42:05.297Z,46.45
2022-12-03T07:47:08.008Z,45.65
2022-12-03T07:52:10.078Z,44.47
2022-12-03T07:57:12.275Z,42.10
2022-12-03T08:02:20.825Z,45.92
2022-12-03T08:07:24.021Z,39.67
2022-12-03T08:12:39.894Z,47.85
2022-12-03T08:17:43.419Z,44.53
2022-12-03T08:22:47.858Z,41.22
2022-12-03T08:27:51.950Z,41.25
2022-12-03T08:32:54.175Z,45.80
2022-12-03T08:38:02.315Z,46.65
2022-12-03T08:43:16.843Z,44.83
2022-12-03T08:48:33.837Z,40.63
2022-12-03T08:53:37.534Z,40.83
2022-12-03T08:58:44.406Z,43.28
2022-12-03T09:03:51.053Z,42.05
2022-12-03T09:08:53.255Z,41.63
2022-12-03T09:13:55.222Z,43.58
2022-12-03T09:18:57.350Z,38.90
2022-12-03T09:24:14.426Z,44.42
2022-12-03T09:29:16.653Z,45.90
2022-12-03T09:34:18.662Z,43.17
2022-12-03T09:39:20.707Z,48.08
2022-12-03T09:44:22.770Z,42.42
2022-12-03T09:49:24.849Z,44.50
2022-12-03T09:54:28.765Z,46.53
2022-12-03T09:59:34.279Z,42.92
2022-12-03T10:04:36.320Z,46.85
2022-12-03T10:09:38.506Z,46.88
2022-12-03T10:14:42.017Z,39.50
2022-12-03T10:19:44.637Z,42.58
2022-12-03T10:25:05.795Z,46.33
2022-12-03T10:30:17.437Z,45.30
2022-12-03T10:35:22.672Z,55.65
2022-12-03T10:40:28.145Z,47.63
2022-12-03T10:45:30.113Z,48.60
2022-12-03T10:50:32.776Z,44.55
2022-12-03T10:55:39.719Z,49.90
2022-12-03T11:00:41.772Z,48.97
2022-12-03T11:05:43.762Z,49.85
2022-12-03T11:10:55.162Z,42.25
2022-12-03T11:15:59.460Z,49.25
2022-12-03T11:21:01.632Z,49.53
2022-12-03T11:26:03.615Z,48.75
2022-12-03T11:31:11.644Z,53.05
2022-12-03T11:36:15.540Z,50.63
2022-12-03T11:41:35.676Z,50.58
2022-12-03T11:46:41.872Z,45.22
2022-12-03T11:51:44.963Z,46.45
2022-12-03T11:56:51.875Z,50.15
2022-12-03T12:01:53.936Z,40.97
2022-12-03T12:06:56.055Z,38.42
2022-12-03T12:12:18.927Z,38.65
2022-12-03T12:17:32.110Z,36.70
2022-12-03T12:22:35.163Z,38.55
2022-12-03T12:27:44.949Z,38.80
2022-12-03T12:32:50.134Z,36.60
2022-12-03T12:37:59.632Z,39.10
2022-12-03T12:43:13.189Z,30.92
2022-12-03T12:48:50.613Z,35.55
2022-12-03T12:53:53.706Z,35.28
2022-12-03T12:59:13.516Z,34.95
2022-12-03T13:04:22.552Z,34.50
2022-12-03T13:09:25.779Z,36.03
2022-12-03T13:14:35.773Z,34.53
2022-12-03T13:19:48.242Z,42.43
2022-12-03T13:24:54.159Z,40.58
2022-12-03T13:30:01.602Z,42.33
2022-12-03T13:35:11.765Z,38.92
2022-12-03T13:40:36.334Z,40.73
2022-12-03T13:45:45.088Z,40.60
2022-12-03T13:50:47.261Z,38.50
2022-12-03T13:55:53.488Z,35.40
2022-12-03T14:00:55.678Z,49.50
2022-12-03T14:05:57.715Z,39.50
2022-12-03T14:11:00.905Z,47.72
2022-12-03T14:16:03.295Z,41.90
2022-12-03T14:21:05.526Z,47.00
2022-12-03T14:26:07.614Z,41.92
2022-12-03T14:31:09.919Z,43.50
2022-12-03T14:36:11.959Z,45.90
2022-12-03T14:41:32.469Z,39.47
2022-12-03T14:46:34.462Z,45.30
2022-12-03T14:51:36.441Z,41.15
2022-12-03T14:56:38.466Z,46.45
2022-12-03T15:01:40.746Z,46.70
2022-12-03T15:06:42.951Z,44.58
2022-12-03T15:11:46.647Z,45.70
2022-12-03T15:16:48.933Z,44.85
2022-12-03T15:21:51.030Z,43.58
2022-12-03T15:26:53.429Z,40.38
2022-12-03T15:31:59.782Z,40.45
2022-12-03T15:37:03.268Z,43.20
2022-12-03T15:42:08.228Z,45.65
2022-12-03T15:47:12.267Z,45.42
2022-12-03T15:52:15.237Z,44.28
2022-12-03T15:57:19.102Z,47.13
2022-12-03T16:02:21.404Z,48.33
2022-12-03T16:07:23.473Z,47.72
2022-12-03T16:12:25.478Z,46.83
2022-12-03T16:17:27.450Z,46.25
2022-12-03T16:22:29.499Z,49.22
2022-12-03T16:27:31.493Z,49.50
2022-12-03T16:32:33.519Z,51.50
2022-12-03T16:37:35.525Z,47.35
2022-12-03T16:42:37.528Z,52.80
2022-12-03T16:47:40.203Z,51.53
2022-12-03T16:52:42.211Z,57.00
2022-12-03T16:57:44.222Z,53.15
2022-12-03T17:02:46.465Z,49.78
2022-12-03T17:07:48.580Z,56.38
2022-12-03T17:18:12.739Z,49.00
2022-12-03T17:23:14.766Z,53.47
2022-12-03T17:28:16.791Z,50.85
2022-12-03T17:33:18.848Z,55.33
2022-12-03T17:38:20.905Z,49.25
2022-12-03T17:43:22.949Z,49.47
2022-12-03T17:48:25.135Z,53.10
2022-12-03T17:53:27.590Z,52.88
2022-12-03T17:58:29.790Z,56.15
2022-12-03T18:03:31.862Z,54.80
2022-12-03T18:08:33.910Z,53.28
2022-12-03T18:13:35.886Z,56.03
2022-12-03T18:18:37.864Z,56.45
2022-12-03T18:23:40.089Z,58.50
2022-12-03T18:28:42.149Z,52.40
2022-12-03T18:33:44.470Z,51.00
2022-12-03T18:38:50.843Z,54.42
2022-12-03T18:43:53.014Z,54.17
2022-12-03T18:48:55.042Z,55.05
2022-12-03T18:53:57.057Z,53.38
2022-12-03T18:58:59.187Z,49.60
2022-12-03T19:04:01.559Z,55.42
2022-12-03T19:09:03.969Z,52.38
2022-12-03T19:14:06.270Z,56.22
2022-12-03T19:19:09.456Z,54.17
2022-12-03T19:24:26.789Z,57.72
2022-12-03T19:29:28.776Z,52.88
2022-12-03T19:34:30.852Z,59.22
2022-12-03T19:39:33.239Z,61.63
2022-12-03T19:44:35.622Z,69.65
2022-12-03T19:49:37.610Z,70.80
2022-12-03T19:54:39.751Z,73.85
2022-12-03T19:59:42.706Z,60.25
2022-12-03T20:04:44.822Z,73.55
2022-12-03T20:09:50.875Z,62.85
2022-12-03T20:14:52.893Z,68.80
2022-12-03T20:19:55.304Z,64.13
2022-12-03T20:24:57.498Z,63.80
2022-12-03T20:29:59.489Z,69.55
2022-12-03T20:35:03.237Z,73.88
2022-12-03T20:40:06.000Z,61.83
2022-12-03T20:45:08.627Z,67.68
2022-12-03T20:50:10.724Z,69.35
2022-12-03T20:55:12.757Z,70.47
2022-12-03T21:00:15.155Z,66.13
2022-12-03T21:05:17.379Z,72.93
2022-12-03T21:10:44.513Z,65.32
2022-12-03T21:15:47.081Z,67.20
2022-12-03T21:20:49.078Z,70.88
2022-12-03T21:25:51.191Z,77.90
2022-12-03T21:30:53.354Z,71.57
2022-12-03T21:35:56.167Z,71.05
2022-12-03T21:40:58.666Z,67.25
2022-12-03T21:46:05.613Z,61.30
2022-12-03T21:51:27.531Z,65.72
2022-12-03T21:56:31.750Z,63.13
2022-12-03T22:01:33.883Z,71.40
2022-12-03T22:06:36.188Z,82.57
2022-12-03T22:11:38.811Z,76.35
2022-12-03T22:16:40.899Z,78.15
2022-12-03T22:21:43.098Z,69.88
2022-12-03T22:26:45.693Z,70.90
2022-12-03T22:31:47.673Z,81.85
2022-12-03T22:36:49.734Z,76.57
2022-12-03T22:41:51.758Z,74.05
2022-12-03T22:46:54.012Z,77.03
2022-12-03T22:51:56.196Z,81.28
2022-12-03T22:56:58.421Z,76.53
2022-12-03T23:02:00.699Z,83.05
2022-12-03T23:07:02.751Z,77.00
2022-12-03T23:12:05.049Z,84.07
2022-12-03T23:17:07.057Z,76.72
2022-12-03T23:22:09.193Z,74.25
2022-12-03T23:27:11.169Z,80.05
2022-12-03T23:32:13.368Z,79.80
2022-12-03T23:37:15.699Z,76.50
2022-12-03T23:42:17.797Z,70.13
2022-12-03T23:47:19.786Z,74.22
2022-12-03T23:52:21.815Z,79.93
2022-12-03T23:57:23.876Z,82.43
